createdAt,value
2019-01-31T00:02:26.078Z,-0.25
2019-01-31T00:05:01.648Z,-0.32
2019-01-31T00:07:58.408Z,-0.24
2019-01-31T00:10:40.159Z,-0.27
2019-01-31T00:13:16.234Z,-0.32
2019-01-31T00:15:57.076Z,-0.35
2019-01-31T00:18:34.381Z,-0.35
2019-01-31T00:21:20.936Z,-0.31
2019-01-31T00:24:05.874Z,-0.35
2019-01-31T00:27:13.627Z,-0.27
2019-01-31T00:30:09.458Z,-0.33
2019-01-31T00:32:58.894Z,-0.34
2019-01-31T00:35:37.673Z,-0.33
2019-01-31T00:38:34.410Z,-0.33
2019-01-31T00:41:19.704Z,-0.31
2019-01-31T00:44:10.979Z,-0.31
2019-01-31T00:46:51.413Z,-0.33
2019-01-31T00:49:52.079Z,-0.28
2019-01-31T00:52:42.924Z,-0.31
2019-01-31T00:55:21.460Z,-0.29
2019-01-31T00:58:15.854Z,-0.31
2019-01-31T01:00:57.614Z,-0.32
2019-01-31T01:03:59.618Z,-0.37
2019-01-31T01:06:50.257Z,-0.30
2019-01-31T01:09:28.149Z,-0.27
2019-01-31T01:12:30.009Z,-0.26
2019-01-31T01:15:20.328Z,-0.29
2019-01-31T01:17:53.370Z,-0.32
2019-01-31T01:20:55.337Z,-0.25
2019-01-31T01:23:45.221Z,-0.32
2019-01-31T01:26:22.816Z,-0.26
2019-01-31T01:29:01.528Z,-0.26
2019-01-31T01:31:59.886Z,-0.27
2019-01-31T01:35:01.264Z,-0.18
2019-01-31T01:37:48.694Z,-0.13
2019-01-31T01:40:38.085Z,-0.14
2019-01-31T01:43:44.162Z,-0.16
2019-01-31T01:46:17.204Z,-0.13
2019-01-31T01:48:50.230Z,-0.08
2019-01-31T01:51:31.949Z,-0.07
2019-01-31T01:54:16.614Z,-0.05
2019-01-31T01:56:55.386Z,-0.05
2019-01-31T01:59:43.407Z,-0.09
2019-01-31T02:02:19.101Z,-0.12
2019-01-31T02:05:01.277Z,-0.02
2019-01-31T02:07:43.211Z,0.10
2019-01-31T02:10:48.193Z,0.08
2019-01-31T02:13:38.837Z,0.08
2019-01-31T02:16:37.649Z,0.15
2019-01-31T02:19:10.723Z,0.11
2019-01-31T02:22:03.652Z,0.13
2019-01-31T02:24:40.016Z,0.18
2019-01-31T02:27:13.070Z,0.20
2019-01-31T02:29:50.488Z,0.28
2019-01-31T02:32:38.630Z,0.30
2019-01-31T02:35:29.345Z,0.27
2019-01-31T02:38:11.190Z,0.28
2019-01-31T02:41:03.247Z,0.31
2019-01-31T02:43:49.405Z,0.27
2019-01-31T02:46:31.563Z,0.27
2019-01-31T02:49:07.447Z,0.27
2019-01-31T02:51:49.589Z,0.24
2019-01-31T02:54:30.001Z,0.23
2019-01-31T02:57:09.380Z,0.26
2019-01-31T03:00:01.717Z,0.27
2019-01-31T03:02:43.688Z,0.24
2019-01-31T03:05:29.641Z,0.26
2019-01-31T03:08:15.991Z,0.23
2019-01-31T03:10:49.111Z,0.19
2019-01-31T03:13:38.611Z,0.12
2019-01-31T03:16:33.187Z,0.03
2019-01-31T03:19:20.948Z,-0.01
2019-01-31T03:22:00.542Z,-0.07
2019-01-31T03:24:39.558Z,-0.12
2019-01-31T03:27:27.677Z,-0.09
2019-01-31T03:30:17.482Z,-0.15
2019-01-31T03:32:51.879Z,-0.14
2019-01-31T03:35:41.320Z,-0.32
2019-01-31T03:38:29.249Z,-0.32
2019-01-31T03:41:02.376Z,-0.29
2019-01-31T03:43:38.055Z,-0.39
2019-01-31T03:46:29.051Z,-0.39
2019-01-31T03:49:08.060Z,-0.38
2019-01-31T03:51:50.347Z,-0.45
2019-01-31T03:54:55.030Z,-0.44
2019-01-31T03:57:40.307Z,-0.43
2019-01-31T04:00:27.440Z,-0.57
2019-01-31T04:03:05.044Z,-0.55
2019-01-31T04:05:41.302Z,-0.53
2019-01-31T04:08:11.166Z,-0.57
2019-01-31T04:10:42.238Z,-0.62
2019-01-31T04:13:11.976Z,-0.70
2019-01-31T04:15:41.885Z,-0.64
2019-01-31T04:18:11.720Z,-0.67
2019-01-31T04:20:43.108Z,-0.80
2019-01-31T04:23:12.878Z,-0.87
2019-01-31T04:25:43.705Z,-0.88
2019-01-31T04:28:17.929Z,-0.81
2019-01-31T04:30:48.925Z,-0.94
2019-01-31T04:33:20.417Z,-1.05
2019-01-31T04:35:52.034Z,-1.03
2019-01-31T04:38:21.811Z,-0.98
2019-01-31T04:40:51.655Z,-0.90
2019-01-31T04:43:21.494Z,-0.94
2019-01-31T04:45:52.103Z,-0.89
2019-01-31T04:48:23.630Z,-0.87
2019-01-31T04:50:53.454Z,-0.87
2019-01-31T04:53:24.794Z,-0.95
2019-01-31T04:55:55.544Z,-0.98
2019-01-31T04:58:25.518Z,-1.01
2019-01-31T05:00:55.372Z,-1.05
2019-01-31T05:03:25.317Z,-1.06
2019-01-31T05:05:55.343Z,-1.00
2019-01-31T05:08:25.324Z,-1.02
2019-01-31T05:10:55.307Z,-1.09
2019-01-31T05:13:25.192Z,-1.06
2019-01-31T05:15:55.598Z,-1.06
2019-01-31T05:18:25.341Z,-1.02
2019-01-31T05:20:55.184Z,-1.07
2019-01-31T05:23:25.061Z,-1.32
2019-01-31T05:25:56.553Z,-1.37
2019-01-31T05:28:26.323Z,-1.37
2019-01-31T05:30:56.122Z,-1.34
2019-01-31T05:33:25.855Z,-1.30
2019-01-31T05:35:55.621Z,-1.39
2019-01-31T05:38:25.396Z,-1.44
2019-01-31T05:40:56.835Z,-1.58
2019-01-31T05:43:26.737Z,-1.56
2019-01-31T05:45:56.541Z,-1.68
2019-01-31T05:48:26.279Z,-1.72
2019-01-31T05:50:56.092Z,-1.71
2019-01-31T05:53:25.851Z,-1.70
2019-01-31T05:55:55.698Z,-1.67
2019-01-31T05:58:25.472Z,-1.61
2019-01-31T06:00:55.474Z,-1.59
2019-01-31T06:03:25.291Z,-1.64
2019-01-31T06:05:55.142Z,-1.63
2019-01-31T06:08:24.903Z,-1.72
2019-01-31T06:10:54.765Z,-1.76
2019-01-31T06:13:24.515Z,-1.85
2019-01-31T06:15:54.281Z,-1.86
2019-01-31T06:18:24.082Z,-1.82
2019-01-31T06:20:53.921Z,-1.86
2019-01-31T06:23:23.702Z,-1.98
2019-01-31T06:25:53.545Z,-2.11
2019-01-31T06:28:24.367Z,-2.15
2019-01-31T06:30:54.124Z,-2.14
2019-01-31T06:33:23.947Z,-2.13
2019-01-31T06:35:53.790Z,-2.19
2019-01-31T06:38:23.616Z,-2.17
2019-01-31T06:40:53.395Z,-2.15
2019-01-31T06:43:23.135Z,-2.09
2019-01-31T06:45:52.985Z,-2.12
2019-01-31T06:48:22.727Z,-2.15
2019-01-31T06:50:52.590Z,-2.23
2019-01-31T06:53:22.622Z,-2.27
2019-01-31T06:55:52.385Z,-2.33
2019-01-31T06:58:22.145Z,-2.34
2019-01-31T07:00:51.934Z,-2.36
2019-01-31T07:03:21.723Z,-2.36
2019-01-31T07:05:51.474Z,-2.35
2019-01-31T07:08:21.246Z,-2.29
2019-01-31T07:10:50.995Z,-2.20
2019-01-31T07:13:20.807Z,-2.21
2019-01-31T07:15:50.615Z,-2.24
2019-01-31T07:18:20.377Z,-2.23
2019-01-31T07:20:50.137Z,-2.26
2019-01-31T07:23:19.929Z,-2.29
2019-01-31T07:25:49.659Z,-2.27
2019-01-31T07:28:20.961Z,-2.27
2019-01-31T07:30:50.717Z,-2.28
2019-01-31T07:33:20.493Z,-2.29
2019-01-31T07:35:52.257Z,-2.16
2019-01-31T07:38:21.937Z,-2.05
2019-01-31T07:40:51.677Z,-2.05
2019-01-31T07:43:21.503Z,-1.90
2019-01-31T07:45:51.292Z,-1.84
2019-01-31T07:48:21.076Z,-1.56
2019-01-31T07:50:50.813Z,-1.49
2019-01-31T07:53:20.573Z,-1.33
2019-01-31T07:55:50.319Z,-1.20
2019-01-31T07:58:20.596Z,-1.08
2019-01-31T08:00:50.410Z,-1.06
2019-01-31T08:03:20.183Z,-1.00
2019-01-31T08:05:49.912Z,-0.95
2019-01-31T08:08:19.690Z,-0.79
2019-01-31T08:10:49.419Z,-0.63
2019-01-31T08:13:19.186Z,-0.72
2019-01-31T08:15:48.932Z,-0.83
2019-01-31T08:18:18.704Z,-0.71
2019-01-31T08:20:48.459Z,-0.88
2019-01-31T08:23:18.226Z,-0.78
2019-01-31T08:25:47.977Z,-0.79
2019-01-31T08:28:17.743Z,-0.68
2019-01-31T08:30:47.512Z,-0.43
2019-01-31T08:33:17.293Z,-0.47
2019-01-31T08:35:47.222Z,-0.41
2019-01-31T08:38:16.950Z,-0.85
2019-01-31T08:40:46.702Z,-0.40
2019-01-31T08:43:16.471Z,-0.72
2019-01-31T08:45:46.228Z,-0.69
2019-01-31T08:48:16.028Z,-0.43
2019-01-31T08:50:45.779Z,-0.26
2019-01-31T08:53:15.559Z,-0.43
2019-01-31T08:55:47.528Z,-0.29
2019-01-31T08:58:16.778Z,-0.48
2019-01-31T09:00:46.525Z,-0.37
2019-01-31T09:03:16.294Z,-0.34
2019-01-31T09:05:46.182Z,-0.31
2019-01-31T09:08:15.964Z,-0.44
2019-01-31T09:10:45.705Z,-0.20
2019-01-31T09:13:15.452Z,-0.43
2019-01-31T09:15:45.187Z,-0.19
2019-01-31T09:18:14.951Z,-0.40
2019-01-31T09:20:57.136Z,-0.29
2019-01-31T09:23:30.184Z,-0.11
2019-01-31T09:26:19.898Z,-0.17
2019-01-31T09:29:04.982Z,-0.29
2019-01-31T09:32:09.791Z,-0.29
2019-01-31T09:35:00.564Z,-0.25
2019-01-31T09:37:56.236Z,-0.08
2019-01-31T09:40:44.436Z,-0.01
2019-01-31T09:43:32.564Z,0.04
2019-01-31T09:46:08.292Z,-0.02
2019-01-31T09:48:53.343Z,-0.12
2019-01-31T09:51:41.120Z,-0.34
2019-01-31T09:54:19.936Z,-0.56
2019-01-31T09:57:07.794Z,-0.69
2019-01-31T09:59:46.459Z,-0.76
2019-01-31T10:02:28.362Z,-0.72
2019-01-31T10:05:07.997Z,-0.80
2019-01-31T10:07:57.281Z,-0.75
2019-01-31T10:10:51.158Z,-0.28
2019-01-31T10:13:42.424Z,-0.17
2019-01-31T10:16:21.288Z,0.12
2019-01-31T10:18:55.517Z,-0.02
2019-01-31T10:21:39.819Z,0.19
2019-01-31T10:24:28.034Z,0.29
2019-01-31T10:27:06.813Z,0.59
2019-01-31T10:29:56.230Z,0.67
2019-01-31T10:32:38.581Z,0.62
2019-01-31T10:35:26.432Z,0.41
2019-01-31T10:38:20.376Z,0.19
2019-01-31T10:41:07.714Z,0.19
2019-01-31T10:43:55.533Z,0.28
2019-01-31T10:46:37.127Z,0.59
2019-01-31T10:49:25.085Z,0.75
2019-01-31T10:52:07.287Z,0.52
2019-01-31T10:54:52.124Z,0.45
2019-01-31T10:57:43.217Z,0.61
2019-01-31T11:00:22.123Z,0.56
2019-01-31T11:03:11.540Z,0.32
2019-01-31T11:05:55.976Z,0.49
2019-01-31T11:08:34.584Z,0.42
2019-01-31T11:11:13.276Z,0.61
2019-01-31T11:14:06.646Z,0.65
2019-01-31T11:16:57.693Z,0.68
2019-01-31T11:19:51.639Z,0.70
2019-01-31T11:22:30.701Z,0.91
2019-01-31T11:25:32.491Z,0.99
2019-01-31T11:28:26.598Z,1.32
2019-01-31T11:31:27.990Z,1.09
2019-01-31T11:34:03.680Z,1.27
2019-01-31T11:36:42.425Z,1.50
2019-01-31T11:39:34.623Z,2.03
2019-01-31T11:42:07.611Z,2.23
2019-01-31T11:44:43.394Z,2.28
2019-01-31T11:47:35.859Z,2.24
2019-01-31T11:50:17.850Z,1.89
2019-01-31T11:52:50.853Z,2.21
2019-01-31T11:55:29.410Z,2.23
2019-01-31T11:58:34.057Z,2.16
2019-01-31T12:01:05.000Z,1.78
2019-01-31T12:03:34.785Z,1.71
2019-01-31T12:06:04.601Z,1.93
2019-01-31T12:08:34.439Z,2.10
2019-01-31T12:11:05.265Z,2.30
2019-01-31T12:13:35.064Z,2.26
2019-01-31T12:16:05.277Z,2.21
2019-01-31T12:18:35.081Z,2.29
2019-01-31T12:21:04.826Z,2.50
2019-01-31T12:23:34.582Z,2.63
2019-01-31T12:26:04.382Z,2.54
2019-01-31T12:28:34.252Z,2.65
2019-01-31T12:31:04.038Z,2.69
2019-01-31T12:33:33.808Z,2.70
2019-01-31T12:36:03.571Z,2.73
2019-01-31T12:38:36.803Z,2.91
2019-01-31T12:41:04.849Z,2.66
2019-01-31T12:43:35.577Z,2.62
2019-01-31T12:46:05.357Z,2.81
2019-01-31T12:48:35.231Z,2.75
2019-01-31T12:51:05.037Z,3.12
2019-01-31T12:53:34.824Z,3.13
2019-01-31T12:56:04.603Z,3.11
2019-01-31T12:58:34.556Z,3.21
2019-01-31T13:01:04.839Z,3.15
2019-01-31T13:03:34.620Z,2.86
2019-01-31T13:06:05.982Z,2.79
2019-01-31T13:08:35.760Z,2.77
2019-01-31T13:11:05.548Z,3.05
2019-01-31T13:13:45.857Z,2.39
2019-01-31T13:16:08.651Z,2.31
2019-01-31T13:18:38.450Z,2.02
2019-01-31T13:21:08.841Z,2.30
2019-01-31T13:23:38.703Z,2.48
2019-01-31T13:26:08.500Z,2.80
2019-01-31T13:28:38.362Z,2.75
2019-01-31T13:31:08.258Z,2.63
2019-01-31T13:33:38.123Z,2.84
2019-01-31T13:36:18.571Z,2.84
2019-01-31T13:38:51.799Z,2.50
2019-01-31T13:41:23.026Z,2.94
2019-01-31T13:43:57.785Z,2.26
2019-01-31T13:46:24.431Z,2.09
2019-01-31T13:48:54.309Z,2.22
2019-01-31T13:51:25.872Z,2.38
2019-01-31T13:53:56.197Z,2.33
2019-01-31T13:56:28.683Z,2.17
2019-01-31T13:58:59.597Z,2.39
2019-01-31T14:01:29.706Z,2.30
2019-01-31T14:03:59.776Z,2.11
2019-01-31T14:06:30.824Z,2.30
2019-01-31T14:09:00.604Z,2.67
2019-01-31T14:11:32.086Z,2.59
2019-01-31T14:14:09.019Z,2.54
2019-01-31T14:16:46.808Z,2.64
2019-01-31T14:19:12.489Z,2.88
2019-01-31T14:21:44.212Z,2.97
2019-01-31T14:24:16.893Z,2.71
2019-01-31T14:26:48.267Z,3.05
2019-01-31T14:29:22.277Z,3.22
2019-01-31T14:31:55.993Z,3.40
2019-01-31T14:34:26.873Z,3.67
2019-01-31T14:36:56.656Z,3.83
2019-01-31T14:39:29.280Z,4.05
2019-01-31T14:42:00.760Z,4.10
2019-01-31T14:44:30.653Z,4.70
2019-01-31T14:47:03.476Z,3.81
2019-01-31T14:49:35.786Z,3.84
2019-01-31T14:52:05.580Z,3.99
2019-01-31T14:54:37.929Z,3.87
2019-01-31T14:57:07.674Z,3.73
2019-01-31T14:59:37.479Z,3.56
2019-01-31T15:02:07.463Z,3.38
2019-01-31T15:04:38.340Z,3.19
2019-01-31T15:07:08.225Z,2.96
2019-01-31T15:09:38.058Z,2.77
2019-01-31T15:12:07.839Z,2.60
2019-01-31T15:14:38.116Z,2.70
2019-01-31T15:17:07.991Z,2.83
2019-01-31T15:19:37.718Z,2.54
2019-01-31T15:22:07.685Z,2.56
2019-01-31T15:24:37.432Z,2.62
2019-01-31T15:27:07.321Z,2.44
2019-01-31T15:29:37.676Z,2.61
2019-01-31T15:32:08.455Z,2.45
2019-01-31T15:34:38.237Z,2.47
2019-01-31T15:37:08.174Z,2.33
2019-01-31T15:39:38.089Z,2.40
2019-01-31T15:42:08.107Z,2.47
2019-01-31T15:44:43.426Z,2.35
2019-01-31T15:47:12.443Z,2.39
2019-01-31T15:49:42.184Z,2.39
2019-01-31T15:52:12.046Z,2.29
2019-01-31T15:54:41.919Z,2.32
2019-01-31T15:57:16.820Z,2.27
2019-01-31T15:59:45.041Z,2.27
2019-01-31T16:02:16.610Z,2.38
2019-01-31T16:04:46.488Z,2.38
2019-01-31T16:07:16.856Z,2.40
2019-01-31T16:09:46.836Z,2.36
2019-01-31T16:12:17.187Z,2.37
2019-01-31T16:14:54.589Z,2.25
2019-01-31T16:17:18.682Z,2.09
2019-01-31T16:19:48.795Z,2.24
2019-01-31T16:22:18.743Z,2.26
2019-01-31T16:24:48.680Z,2.29
2019-01-31T16:27:18.575Z,2.22
2019-01-31T16:29:48.382Z,2.10
2019-01-31T16:32:18.527Z,2.12
2019-01-31T16:34:50.052Z,2.18
2019-01-31T16:37:22.552Z,2.11
2019-01-31T16:39:52.449Z,2.05
2019-01-31T16:42:22.308Z,2.01
2019-01-31T16:44:52.068Z,2.00
2019-01-31T16:47:22.088Z,1.92
2019-01-31T16:49:51.902Z,1.86
2019-01-31T16:52:24.984Z,1.80
2019-01-31T16:54:54.745Z,1.89
2019-01-31T16:57:28.106Z,1.75
2019-01-31T16:59:57.885Z,1.74
2019-01-31T17:02:27.685Z,1.76
2019-01-31T17:04:57.597Z,1.61
2019-01-31T17:07:27.408Z,1.46
2019-01-31T17:09:57.150Z,1.50
2019-01-31T17:12:28.473Z,1.45
2019-01-31T17:14:58.359Z,1.45
2019-01-31T17:17:28.304Z,1.55
2019-01-31T17:19:58.055Z,1.44
2019-01-31T17:22:27.941Z,1.57
2019-01-31T17:24:57.842Z,1.62
2019-01-31T17:27:27.737Z,1.58
2019-01-31T17:29:57.516Z,1.58
2019-01-31T17:32:27.363Z,1.65
2019-01-31T17:34:57.125Z,1.57
2019-01-31T17:37:27.025Z,1.48
2019-01-31T17:39:56.852Z,1.55
2019-01-31T17:42:26.757Z,1.57
2019-01-31T17:44:56.665Z,1.61
2019-01-31T17:47:26.582Z,1.55
2019-01-31T17:49:58.350Z,1.51
2019-01-31T17:52:28.163Z,1.52
2019-01-31T17:54:57.922Z,1.63
2019-01-31T17:57:27.784Z,1.55
2019-01-31T17:59:57.548Z,1.44
2019-01-31T18:02:28.840Z,1.43
2019-01-31T18:04:58.595Z,1.39
2019-01-31T18:07:28.464Z,1.40
2019-01-31T18:09:58.244Z,1.35
2019-01-31T18:12:28.027Z,1.44
2019-01-31T18:14:57.770Z,1.41
2019-01-31T18:17:27.574Z,1.41
2019-01-31T18:19:58.398Z,1.35
2019-01-31T18:22:28.117Z,1.41
2019-01-31T18:24:57.964Z,1.46
2019-01-31T18:27:27.759Z,1.40
2019-01-31T18:29:57.545Z,1.46
2019-01-31T18:32:27.543Z,1.42
2019-01-31T18:34:57.383Z,1.49
2019-01-31T18:37:27.174Z,1.46
2019-01-31T18:39:58.080Z,1.38
2019-01-31T18:42:27.866Z,1.37
2019-01-31T18:44:57.752Z,1.38
2019-01-31T18:47:27.582Z,1.39
2019-01-31T18:49:57.470Z,1.44
2019-01-31T18:52:27.762Z,1.44
2019-01-31T18:54:57.597Z,1.46
2019-01-31T18:57:27.439Z,1.38
2019-01-31T18:59:57.421Z,1.43
2019-01-31T19:02:27.313Z,1.41
2019-01-31T19:04:57.306Z,1.35
2019-01-31T19:07:27.193Z,1.36
2019-01-31T19:09:57.051Z,1.41
2019-01-31T19:12:27.334Z,1.34
2019-01-31T19:14:57.207Z,1.29
2019-01-31T19:17:27.109Z,1.37
2019-01-31T19:19:57.014Z,1.31
2019-01-31T19:22:28.485Z,1.25
2019-01-31T19:24:58.413Z,1.24
2019-01-31T19:27:28.230Z,1.34
2019-01-31T19:29:58.303Z,1.32
2019-01-31T19:32:29.750Z,1.26
2019-01-31T19:34:59.582Z,1.29
2019-01-31T19:37:29.357Z,1.26
2019-01-31T19:39:59.183Z,1.25
2019-01-31T19:42:35.265Z,1.23
2019-01-31T19:45:10.957Z,1.25
2019-01-31T19:47:40.982Z,1.28
2019-01-31T19:50:12.444Z,1.24
2019-01-31T19:52:42.254Z,1.17
2019-01-31T19:55:12.942Z,1.21
2019-01-31T19:57:42.782Z,1.22
2019-01-31T20:00:17.153Z,1.15
2019-01-31T20:02:47.198Z,1.13
2019-01-31T20:05:17.259Z,1.18
2019-01-31T20:07:47.219Z,1.17
2019-01-31T20:10:22.469Z,1.22
2019-01-31T20:12:52.223Z,1.16
2019-01-31T20:15:23.333Z,1.16
2019-01-31T20:17:54.859Z,1.14
2019-01-31T20:20:27.853Z,1.18
2019-01-31T20:22:58.530Z,1.20
2019-01-31T20:25:30.140Z,1.19
2019-01-31T20:27:59.997Z,1.27
2019-01-31T20:30:33.234Z,1.28
2019-01-31T20:33:03.002Z,1.09
2019-01-31T20:35:32.954Z,1.25
2019-01-31T20:38:03.491Z,1.21
2019-01-31T20:40:38.487Z,1.13
2019-01-31T20:43:08.331Z,1.21
2019-01-31T20:45:38.250Z,1.18
2019-01-31T20:48:08.595Z,1.21
2019-01-31T20:50:39.340Z,1.13
2019-01-31T20:53:09.217Z,1.16
2019-01-31T20:55:39.020Z,1.21
2019-01-31T20:58:08.783Z,1.09
2019-01-31T21:00:40.650Z,1.17
2019-01-31T21:03:10.671Z,1.22
2019-01-31T21:05:40.542Z,1.15
2019-01-31T21:08:10.443Z,1.12
2019-01-31T21:10:40.222Z,1.16
2019-01-31T21:13:10.080Z,1.19
2019-01-31T21:15:39.982Z,1.19
2019-01-31T21:18:09.774Z,1.15
2019-01-31T21:20:41.476Z,1.08
2019-01-31T21:23:13.101Z,1.12
2019-01-31T21:25:45.249Z,1.14
2019-01-31T21:28:15.499Z,1.12
2019-01-31T21:30:45.314Z,1.05
2019-01-31T21:33:15.211Z,0.91
2019-01-31T21:35:46.729Z,0.81
2019-01-31T21:38:17.675Z,0.86
2019-01-31T21:40:47.718Z,0.72
2019-01-31T21:43:17.591Z,0.72
2019-01-31T21:45:47.475Z,0.69
2019-01-31T21:48:18.793Z,0.54
2019-01-31T21:50:50.128Z,0.52
2019-01-31T21:53:21.638Z,0.55
2019-01-31T21:55:54.522Z,0.55
2019-01-31T21:58:25.967Z,0.41
2019-01-31T22:00:55.950Z,0.41
2019-01-31T22:03:26.106Z,0.37
2019-01-31T22:06:00.771Z,0.30
2019-01-31T22:08:31.031Z,0.24
2019-01-31T22:11:00.817Z,0.28
2019-01-31T22:13:31.495Z,0.31
2019-01-31T22:16:02.979Z,0.24
2019-01-31T22:18:33.060Z,0.25
2019-01-31T22:21:03.650Z,0.23
2019-01-31T22:23:33.400Z,0.20
2019-01-31T22:26:03.216Z,0.13
2019-01-31T22:28:32.964Z,0.18
2019-01-31T22:31:03.834Z,0.17
2019-01-31T22:33:34.646Z,0.12
2019-01-31T22:36:06.167Z,0.11
2019-01-31T22:38:35.926Z,0.09
2019-01-31T22:41:07.020Z,0.02
2019-01-31T22:43:37.909Z,0.07
2019-01-31T22:46:09.269Z,0.00
2019-01-31T22:48:39.041Z,-0.05
2019-01-31T22:51:08.797Z,-0.06
2019-01-31T22:53:38.628Z,-0.10
2019-01-31T22:56:08.457Z,-0.06
2019-01-31T22:58:40.934Z,-0.07
2019-01-31T23:01:17.276Z,-0.09
2019-01-31T23:03:50.513Z,-0.04
2019-01-31T23:06:21.920Z,-0.10
2019-01-31T23:08:53.290Z,-0.12
2019-01-31T23:11:24.667Z,-0.14
2019-01-31T23:13:54.448Z,-0.15
2019-01-31T23:16:26.727Z,-0.15
2019-01-31T23:18:56.666Z,-0.24
2019-01-31T23:21:31.932Z,-0.27
2019-01-31T23:24:01.687Z,-0.32
2019-01-31T23:26:32.537Z,-0.33
2019-01-31T23:29:02.295Z,-0.37
2019-01-31T23:31:32.113Z,-0.40
2019-01-31T23:34:03.905Z,-0.41
2019-01-31T23:36:33.727Z,-0.40
2019-01-31T23:39:05.119Z,-0.41
2019-01-31T23:41:36.116Z,-0.46
2019-01-31T23:44:07.930Z,-0.47
2019-01-31T23:46:39.671Z,-0.45
2019-01-31T23:49:13.805Z,-0.42
2019-01-31T23:51:43.739Z,-0.41
2019-01-31T23:54:14.726Z,-0.39
2019-01-31T23:56:45.797Z,-0.31
2019-01-31T23:59:15.619Z,-0.41
